createdAt,value
2018-06-09T00:00:05.594Z,973.43
2018-06-09T00:01:05.247Z,973.49
2018-06-09T00:02:05.303Z,973.34
2018-06-09T00:03:05.801Z,973.46
2018-06-09T00:04:05.504Z,973.52
2018-06-09T00:05:05.306Z,973.40
2018-06-09T00:06:05.783Z,973.46
2018-06-09T00:07:04.961Z,973.56
2018-06-09T00:08:05.137Z,973.37
2018-06-09T00:09:05.094Z,973.40
2018-06-09T00:10:05.968Z,973.54
2018-06-09T00:11:05.176Z,973.43
2018-06-09T00:12:05.145Z,973.46
2018-06-09T00:13:05.216Z,973.52
2018-06-09T00:14:05.256Z,973.46
2018-06-09T00:15:05.376Z,973.46
2018-06-09T00:16:05.163Z,973.46
2018-06-09T00:17:04.997Z,973.54
2018-06-09T00:18:05.067Z,973.40
2018-06-09T00:19:05.903Z,973.52
2018-06-09T00:20:06.084Z,973.46
2018-06-09T00:21:05.702Z,973.46
2018-06-09T00:22:05.304Z,973.44
2018-06-09T00:23:05.315Z,973.44
2018-06-09T00:24:05.309Z,973.44
2018-06-09T00:25:05.141Z,973.41
2018-06-09T00:26:05.594Z,973.38
2018-06-09T00:27:05.564Z,973.44
2018-06-09T00:28:05.699Z,973.53
2018-06-09T00:29:05.066Z,973.55
2018-06-09T00:30:06.029Z,973.53
2018-06-09T00:31:05.932Z,973.61
2018-06-09T00:32:05.410Z,973.58
2018-06-09T00:33:05.301Z,973.47
2018-06-09T00:34:05.864Z,973.61
2018-06-09T00:35:06.004Z,973.58
2018-06-09T00:36:05.689Z,973.76
2018-06-09T00:37:05.569Z,973.64
2018-06-09T00:38:05.493Z,973.70
2018-06-09T00:39:05.468Z,973.67
2018-06-09T00:40:04.979Z,973.76
2018-06-09T00:41:05.388Z,973.76
2018-06-09T00:42:05.362Z,973.79
2018-06-09T00:43:05.218Z,973.76
2018-06-09T00:44:05.614Z,973.64
2018-06-09T00:45:05.599Z,973.62
2018-06-09T00:46:05.505Z,973.70
2018-06-09T00:47:05.115Z,973.73
2018-06-09T00:48:05.808Z,973.76
2018-06-09T00:49:05.493Z,973.65
2018-06-09T00:50:06.138Z,973.82
2018-06-09T00:51:05.588Z,973.71
2018-06-09T00:52:05.243Z,973.77
2018-06-09T00:53:05.730Z,973.77
2018-06-09T00:54:05.419Z,973.65
2018-06-09T00:55:05.036Z,973.71
2018-06-09T00:56:06.079Z,973.80
2018-06-09T00:57:06.033Z,973.62
2018-06-09T00:58:05.839Z,973.77
2018-06-09T00:59:05.029Z,973.63
2018-06-09T01:00:05.678Z,973.66
2018-06-09T01:01:05.404Z,973.66
2018-06-09T01:02:05.553Z,973.66
2018-06-09T01:03:05.755Z,973.63
2018-06-09T01:04:05.731Z,973.57
2018-06-09T01:05:05.233Z,973.69
2018-06-09T01:06:05.074Z,973.69
2018-06-09T01:07:05.083Z,973.69
2018-06-09T01:08:05.131Z,973.75
2018-06-09T01:09:05.262Z,973.66
2018-06-09T01:10:05.786Z,973.67
2018-06-09T01:11:05.932Z,973.64
2018-06-09T01:12:05.610Z,973.53
2018-06-09T01:13:05.695Z,973.58
2018-06-09T01:14:05.571Z,973.64
2018-06-09T01:15:10.662Z,973.70
2018-06-09T01:16:05.056Z,973.53
2018-06-09T01:17:05.172Z,973.79
2018-06-09T01:18:05.151Z,973.58
2018-06-09T01:19:05.456Z,973.59
2018-06-09T01:20:05.618Z,973.62
2018-06-09T01:21:05.481Z,973.51
2018-06-09T01:22:05.618Z,973.54
2018-06-09T01:23:05.656Z,973.62
2018-06-09T01:24:05.320Z,973.48
2018-06-09T01:25:05.028Z,973.56
2018-06-09T01:26:05.935Z,973.56
2018-06-09T01:27:05.323Z,973.37
2018-06-09T01:28:05.781Z,973.59
2018-06-09T01:29:05.540Z,973.46
2018-06-09T01:30:05.305Z,973.62
2018-06-09T01:31:05.827Z,973.54
2018-06-09T01:32:05.590Z,973.52
2018-06-09T01:33:05.504Z,973.59
2018-06-09T01:34:06.096Z,973.65
2018-06-09T01:35:05.188Z,973.71
2018-06-09T01:36:05.226Z,973.71
2018-06-09T01:37:05.345Z,973.63
2018-06-09T01:38:05.743Z,973.60
2018-06-09T01:39:05.570Z,973.69
2018-06-09T01:40:05.569Z,973.74
2018-06-09T01:41:05.678Z,973.72
2018-06-09T01:42:05.329Z,973.66
2018-06-09T01:43:05.352Z,973.60
2018-06-09T01:44:05.396Z,973.72
2018-06-09T01:45:05.272Z,973.63
2018-06-09T01:46:05.146Z,973.60
2018-06-09T01:47:05.187Z,973.60
2018-06-09T01:48:05.680Z,973.66
2018-06-09T01:49:05.884Z,973.60
2018-06-09T01:50:05.677Z,973.57
2018-06-09T01:51:05.906Z,973.57
2018-06-09T01:52:05.784Z,973.54
2018-06-09T01:53:05.938Z,973.38
2018-06-09T01:54:10.899Z,973.44
2018-06-09T01:55:06.203Z,973.46
2018-06-09T01:56:07.139Z,973.52
2018-06-09T01:57:05.887Z,973.52
2018-06-09T01:58:04.995Z,973.46
2018-06-09T01:59:05.147Z,973.54
2018-06-09T02:00:05.166Z,973.57
2018-06-09T02:01:05.182Z,973.44
2018-06-09T02:02:05.832Z,973.41
2018-06-09T02:03:05.930Z,973.53
2018-06-09T02:04:05.507Z,973.44
2018-06-09T02:05:05.323Z,973.50
2018-06-09T02:06:05.322Z,973.47
2018-06-09T02:07:05.533Z,973.36
2018-06-09T02:08:05.602Z,973.42
2018-06-09T02:09:05.742Z,973.45
2018-06-09T02:10:10.649Z,973.36
2018-06-09T02:11:05.416Z,973.39
2018-06-09T02:12:05.968Z,973.28
2018-06-09T02:13:05.388Z,973.43
2018-06-09T02:14:10.107Z,973.28
2018-06-09T02:15:05.551Z,973.23
2018-06-09T02:16:05.593Z,973.26
2018-06-09T02:17:05.692Z,973.32
2018-06-09T02:18:05.371Z,973.26
2018-06-09T02:19:05.134Z,973.20
2018-06-09T02:20:05.178Z,973.29
2018-06-09T02:21:05.868Z,973.29
2018-06-09T02:22:04.990Z,973.29
2018-06-09T02:23:10.037Z,973.23
2018-06-09T02:24:05.242Z,973.15
2018-06-09T02:25:05.345Z,973.24
2018-06-09T02:26:05.190Z,973.24
2018-06-09T02:27:05.198Z,973.32
2018-06-09T02:28:05.086Z,973.15
2018-06-09T02:29:05.035Z,973.24
2018-06-09T02:30:05.182Z,973.12
2018-06-09T02:31:05.290Z,973.29
2018-06-09T02:32:05.858Z,973.18
2018-06-09T02:33:05.546Z,973.20
2018-06-09T02:34:05.059Z,973.32
2018-06-09T02:35:05.508Z,973.26
2018-06-09T02:36:05.884Z,973.26
2018-06-09T02:37:05.865Z,973.14
2018-06-09T02:38:05.491Z,973.14
2018-06-09T02:39:05.057Z,973.17
2018-06-09T02:40:05.330Z,973.29
2018-06-09T02:41:05.699Z,973.32
2018-06-09T02:42:05.639Z,973.06
2018-06-09T02:43:05.827Z,973.14
2018-06-09T02:44:05.607Z,973.23
2018-06-09T02:45:05.935Z,973.26
2018-06-09T02:46:05.758Z,973.40
2018-06-09T02:47:05.722Z,973.26
2018-06-09T02:48:05.903Z,973.26
2018-06-09T02:49:05.513Z,973.32
2018-06-09T02:50:05.547Z,973.43
2018-06-09T02:51:05.189Z,973.14
2018-06-09T02:52:05.062Z,973.35
2018-06-09T02:53:05.573Z,973.29
2018-06-09T02:54:05.404Z,973.26
2018-06-09T02:55:05.748Z,973.29
2018-06-09T02:56:05.239Z,973.35
2018-06-09T02:57:05.408Z,973.26
2018-06-09T02:58:05.659Z,973.29
2018-06-09T02:59:05.042Z,973.24
2018-06-09T03:00:05.640Z,973.29
2018-06-09T03:01:05.841Z,973.21
2018-06-09T03:02:10.719Z,973.32
2018-06-09T03:03:05.749Z,973.32
2018-06-09T03:04:05.308Z,973.30
2018-06-09T03:05:05.870Z,973.24
2018-06-09T03:06:05.267Z,973.35
2018-06-09T03:07:05.417Z,973.35
2018-06-09T03:08:05.417Z,973.47
2018-06-09T03:09:05.520Z,973.30
2018-06-09T03:10:05.352Z,973.30
2018-06-09T03:11:05.489Z,973.32
2018-06-09T03:12:05.625Z,973.30
2018-06-09T03:13:05.458Z,973.32
2018-06-09T03:14:05.553Z,973.24
2018-06-09T03:15:05.148Z,973.27
2018-06-09T03:16:05.937Z,973.24
2018-06-09T03:17:05.370Z,973.38
2018-06-09T03:18:05.210Z,973.21
2018-06-09T03:19:05.180Z,973.35
2018-06-09T03:20:05.367Z,973.41
2018-06-09T03:21:05.575Z,973.47
2018-06-09T03:22:05.743Z,973.38
2018-06-09T03:23:05.670Z,973.38
2018-06-09T03:24:05.762Z,973.35
2018-06-09T03:25:05.419Z,973.47
2018-06-09T03:26:10.855Z,973.47
2018-06-09T03:27:05.368Z,973.47
2018-06-09T03:28:05.161Z,973.47
2018-06-09T03:29:05.695Z,973.41
2018-06-09T03:30:05.397Z,973.41
2018-06-09T03:31:04.989Z,973.50
2018-06-09T03:32:05.343Z,973.50
2018-06-09T03:33:05.749Z,973.58
2018-06-09T03:34:05.171Z,973.47
2018-06-09T03:35:05.879Z,973.61
2018-06-09T03:36:05.985Z,973.66
2018-06-09T03:37:05.541Z,973.61
2018-06-09T03:38:05.590Z,973.63
2018-06-09T03:39:05.407Z,973.58
2018-06-09T03:40:05.963Z,973.53
2018-06-09T03:41:05.656Z,973.58
2018-06-09T03:42:05.644Z,973.50
2018-06-09T03:43:05.816Z,973.53
2018-06-09T03:44:05.540Z,973.67
2018-06-09T03:45:05.588Z,973.64
2018-06-09T03:46:05.394Z,973.58
2018-06-09T03:47:05.429Z,973.73
2018-06-09T03:48:05.378Z,973.67
2018-06-09T03:49:05.755Z,973.73
2018-06-09T03:50:05.502Z,973.70
2018-06-09T03:51:05.047Z,973.76
2018-06-09T03:52:05.045Z,973.67
2018-06-09T03:53:05.667Z,973.79
2018-06-09T03:54:05.246Z,973.58
2018-06-09T03:55:05.440Z,973.67
2018-06-09T03:56:05.336Z,973.72
2018-06-09T03:57:05.328Z,973.63
2018-06-09T03:58:05.408Z,973.72
2018-06-09T03:59:05.325Z,973.52
2018-06-09T04:00:05.891Z,973.60
2018-06-09T04:01:05.091Z,973.62
2018-06-09T04:02:05.228Z,973.59
2018-06-09T04:03:05.140Z,973.64
2018-06-09T04:04:05.159Z,973.67
2018-06-09T04:05:05.342Z,973.72
2018-06-09T04:06:05.615Z,973.69
2018-06-09T04:07:10.321Z,973.77
2018-06-09T04:08:05.140Z,973.62
2018-06-09T04:09:05.184Z,973.61
2018-06-09T04:10:05.238Z,973.75
2018-06-09T04:11:05.269Z,973.65
2018-06-09T04:12:05.855Z,973.68
2018-06-09T04:13:05.509Z,973.67
2018-06-09T04:14:06.202Z,973.69
2018-06-09T04:15:05.299Z,973.50
2018-06-09T04:16:05.329Z,973.63
2018-06-09T04:17:05.648Z,973.59
2018-06-09T04:18:05.320Z,973.70
2018-06-09T04:19:05.313Z,973.67
2018-06-09T04:20:05.110Z,973.72
2018-06-09T04:21:05.125Z,973.86
2018-06-09T04:22:05.413Z,973.74
2018-06-09T04:23:05.341Z,973.79
2018-06-09T04:24:05.162Z,973.70
2018-06-09T04:25:05.830Z,973.73
2018-06-09T04:26:06.035Z,973.75
2018-06-09T04:27:05.155Z,973.72
2018-06-09T04:28:05.579Z,973.74
2018-06-09T04:29:05.722Z,973.76
2018-06-09T04:30:05.478Z,973.70
2018-06-09T04:31:05.530Z,973.64
2018-06-09T04:32:05.313Z,973.66
2018-06-09T04:33:05.382Z,973.71
2018-06-09T04:34:05.330Z,973.71
2018-06-09T04:35:05.572Z,973.70
2018-06-09T04:36:05.112Z,973.78
2018-06-09T04:37:05.803Z,973.75
2018-06-09T04:38:05.801Z,973.71
2018-06-09T04:39:05.766Z,973.76
2018-06-09T04:40:05.738Z,973.64
2018-06-09T04:41:05.226Z,973.67
2018-06-09T04:42:05.094Z,973.78
2018-06-09T04:43:05.559Z,973.80
2018-06-09T04:44:05.637Z,973.68
2018-06-09T04:45:05.105Z,973.74
2018-06-09T04:46:05.141Z,973.76
2018-06-09T04:47:05.025Z,973.73
2018-06-09T04:48:05.977Z,973.90
2018-06-09T04:49:04.911Z,973.77
2018-06-09T04:50:06.006Z,973.60
2018-06-09T04:51:05.599Z,973.85
2018-06-09T04:52:10.232Z,973.76
2018-06-09T04:53:05.850Z,973.84
2018-06-09T04:54:05.917Z,973.81
2018-06-09T04:55:05.582Z,973.72
2018-06-09T04:56:05.674Z,973.86
2018-06-09T04:57:05.358Z,973.77
2018-06-09T04:58:05.234Z,973.82
2018-06-09T04:59:05.225Z,973.90
2018-06-09T05:00:10.050Z,973.78
2018-06-09T05:01:05.439Z,973.84
2018-06-09T05:02:05.699Z,973.89
2018-06-09T05:03:05.864Z,973.77
2018-06-09T05:04:05.128Z,973.88
2018-06-09T05:05:06.119Z,973.82
2018-06-09T05:06:05.704Z,973.93
2018-06-09T05:07:06.040Z,973.93
2018-06-09T05:08:05.510Z,974.04
2018-06-09T05:09:05.573Z,973.83
2018-06-09T05:10:05.165Z,973.91
2018-06-09T05:11:05.483Z,974.00
2018-06-09T05:12:11.359Z,973.94
2018-06-09T05:13:05.810Z,974.02
2018-06-09T05:14:06.038Z,974.14
2018-06-09T05:15:05.863Z,974.03
2018-06-09T05:16:05.289Z,974.09
2018-06-09T05:17:05.318Z,974.03
2018-06-09T05:18:05.163Z,974.06
2018-06-09T05:19:05.337Z,974.12
2018-06-09T05:20:05.218Z,974.09
2018-06-09T05:21:05.435Z,974.01
2018-06-09T05:22:05.591Z,974.07
2018-06-09T05:23:10.554Z,974.05
2018-06-09T05:24:05.670Z,974.14
2018-06-09T05:25:05.331Z,974.03
2018-06-09T05:26:05.344Z,973.98
2018-06-09T05:27:05.280Z,974.10
2018-06-09T05:28:06.336Z,973.99
2018-06-09T05:29:05.013Z,973.99
2018-06-09T05:30:05.560Z,973.96
2018-06-09T05:31:05.539Z,974.14
2018-06-09T05:32:05.815Z,974.06
2018-06-09T05:33:05.729Z,974.21
2018-06-09T05:34:05.259Z,974.15
2018-06-09T05:35:05.376Z,974.21
2018-06-09T05:36:05.765Z,974.16
2018-06-09T05:37:05.726Z,974.16
2018-06-09T05:38:05.305Z,974.28
2018-06-09T05:39:10.271Z,974.11
2018-06-09T05:40:05.636Z,974.17
2018-06-09T05:41:10.516Z,974.06
2018-06-09T05:42:05.805Z,974.03
2018-06-09T05:43:05.953Z,974.15
2018-06-09T05:44:05.688Z,974.12
2018-06-09T05:45:05.256Z,974.12
2018-06-09T05:46:06.010Z,974.04
2018-06-09T05:47:06.016Z,973.98
2018-06-09T05:48:05.501Z,974.10
2018-06-09T05:49:05.410Z,974.10
2018-06-09T05:50:05.880Z,974.19
2018-06-09T05:51:10.594Z,974.01
2018-06-09T05:52:05.504Z,974.07
2018-06-09T05:53:05.925Z,973.98
2018-06-09T05:54:05.297Z,974.10
2018-06-09T05:55:05.315Z,974.07
2018-06-09T05:56:05.739Z,974.09
2018-06-09T05:57:05.841Z,974.21
2018-06-09T05:58:05.813Z,974.18
2018-06-09T05:59:05.957Z,974.20
2018-06-09T06:00:05.669Z,974.11
2018-06-09T06:01:05.763Z,974.09
2018-06-09T06:02:05.262Z,974.17
2018-06-09T06:03:06.070Z,974.17
2018-06-09T06:04:05.435Z,974.20
2018-06-09T06:05:10.421Z,974.23
2018-06-09T06:06:05.624Z,974.29
2018-06-09T06:07:05.829Z,974.15
2018-06-09T06:08:05.505Z,974.15
2018-06-09T06:09:05.640Z,974.12
2018-06-09T06:10:05.788Z,974.24
2018-06-09T06:11:05.425Z,974.24
2018-06-09T06:12:05.666Z,974.26
2018-06-09T06:13:05.070Z,974.23
2018-06-09T06:14:05.347Z,974.17
2018-06-09T06:15:05.496Z,974.35
2018-06-09T06:16:05.690Z,974.17
2018-06-09T06:17:05.528Z,974.01
2018-06-09T06:18:05.610Z,974.24
2018-06-09T06:19:05.232Z,974.17
2018-06-09T06:20:05.093Z,974.13
2018-06-09T06:21:05.196Z,974.18
2018-06-09T06:22:05.222Z,974.06
2018-06-09T06:23:06.511Z,974.14
2018-06-09T06:24:05.737Z,974.25
2018-06-09T06:25:10.472Z,974.28
2018-06-09T06:26:05.548Z,974.13
2018-06-09T06:27:05.917Z,974.24
2018-06-09T06:28:05.775Z,974.26
2018-06-09T06:29:05.858Z,974.29
2018-06-09T06:30:05.793Z,974.32
2018-06-09T06:31:05.360Z,974.28
2018-06-09T06:32:05.254Z,974.30
2018-06-09T06:33:05.185Z,974.27
2018-06-09T06:34:05.347Z,974.35
2018-06-09T06:35:05.391Z,974.32
2018-06-09T06:36:05.262Z,974.34
2018-06-09T06:37:05.247Z,974.46
2018-06-09T06:38:05.850Z,974.40
2018-06-09T06:39:05.765Z,974.40
2018-06-09T06:40:05.897Z,974.31
2018-06-09T06:41:09.966Z,974.28
2018-06-09T06:42:06.212Z,974.31
2018-06-09T06:43:05.660Z,974.28
2018-06-09T06:44:05.819Z,974.31
2018-06-09T06:45:11.764Z,974.45
2018-06-09T06:46:05.618Z,974.39
2018-06-09T06:47:10.464Z,974.36
2018-06-09T06:48:05.337Z,974.26
2018-06-09T06:49:05.044Z,974.31
2018-06-09T06:50:05.591Z,974.22
2018-06-09T06:51:05.674Z,974.30
2018-06-09T06:52:05.883Z,974.20
2018-06-09T06:53:05.565Z,974.29
2018-06-09T06:54:05.681Z,974.31
2018-06-09T06:55:05.488Z,974.39
2018-06-09T06:56:05.963Z,974.24
2018-06-09T06:57:05.906Z,974.35
2018-06-09T06:58:04.976Z,974.23
2018-06-09T06:59:05.070Z,974.34
2018-06-09T07:00:05.064Z,974.34
2018-06-09T07:01:05.150Z,974.36
2018-06-09T07:02:06.435Z,974.30
2018-06-09T07:03:05.507Z,974.27
2018-06-09T07:04:05.942Z,974.33
2018-06-09T07:05:05.878Z,974.41
2018-06-09T07:06:05.944Z,974.41
2018-06-09T07:07:05.961Z,974.38
2018-06-09T07:08:05.170Z,974.44
2018-06-09T07:09:05.214Z,974.40
2018-06-09T07:10:05.767Z,974.43
2018-06-09T07:11:05.766Z,974.40
2018-06-09T07:12:05.653Z,974.37
2018-06-09T07:13:05.554Z,974.33
2018-06-09T07:14:05.783Z,974.36
2018-06-09T07:15:05.386Z,974.35
2018-06-09T07:16:05.259Z,974.41
2018-06-09T07:17:10.879Z,974.32
2018-06-09T07:18:05.508Z,974.40
2018-06-09T07:19:05.175Z,974.34
2018-06-09T07:20:06.387Z,974.37
2018-06-09T07:21:06.314Z,974.45
2018-06-09T07:22:05.603Z,974.27
2018-06-09T07:23:05.896Z,974.33
2018-06-09T07:24:05.787Z,974.36
2018-06-09T07:25:10.776Z,974.32
2018-06-09T07:26:05.676Z,974.29
2018-06-09T07:27:05.519Z,974.35
2018-06-09T07:28:06.540Z,974.32
2018-06-09T07:29:06.599Z,974.31
2018-06-09T07:30:05.983Z,974.34
2018-06-09T07:31:04.997Z,974.31
2018-06-09T07:32:05.172Z,974.25
2018-06-09T07:33:05.309Z,974.34
2018-06-09T07:34:05.883Z,974.22
2018-06-09T07:35:05.420Z,974.21
2018-06-09T07:36:05.803Z,974.39
2018-06-09T07:37:06.156Z,974.21
2018-06-09T07:38:05.448Z,974.33
2018-06-09T07:39:05.134Z,974.21
2018-06-09T07:40:05.368Z,974.27
2018-06-09T07:41:05.645Z,974.15
2018-06-09T07:42:06.046Z,974.12
2018-06-09T07:43:05.767Z,974.18
2018-06-09T07:44:05.408Z,974.23
2018-06-09T07:45:05.936Z,974.23
2018-06-09T07:46:06.173Z,974.32
2018-06-09T07:47:06.762Z,974.19
2018-06-09T07:48:05.496Z,974.13
2018-06-09T07:49:05.650Z,974.16
2018-06-09T07:50:05.564Z,974.22
2018-06-09T07:51:05.199Z,974.19
2018-06-09T07:52:05.682Z,974.33
2018-06-09T07:53:05.324Z,974.12
2018-06-09T07:54:05.228Z,974.27
2018-06-09T07:55:05.297Z,974.24
2018-06-09T07:56:05.397Z,974.24
2018-06-09T07:57:05.895Z,974.18
2018-06-09T07:58:05.953Z,974.18
2018-06-09T07:59:05.742Z,974.15
2018-06-09T08:00:05.393Z,974.15
2018-06-09T08:01:05.707Z,974.21
2018-06-09T08:02:05.370Z,974.12
2018-06-09T08:03:05.176Z,974.21
2018-06-09T08:04:06.116Z,974.21
2018-06-09T08:05:05.098Z,974.24
2018-06-09T08:06:05.250Z,974.21
2018-06-09T08:07:05.748Z,974.12
2018-06-09T08:08:05.448Z,974.18
2018-06-09T08:09:05.389Z,974.18
2018-06-09T08:10:05.014Z,974.21
2018-06-09T08:11:05.759Z,974.15
2018-06-09T08:12:05.451Z,974.24
2018-06-09T08:13:05.195Z,974.18
2018-06-09T08:14:05.286Z,974.30
2018-06-09T08:15:05.360Z,974.18
2018-06-09T08:16:05.407Z,974.12
2018-06-09T08:17:05.518Z,974.18
2018-06-09T08:18:05.092Z,974.18
2018-06-09T08:19:05.045Z,974.24
2018-06-09T08:20:05.206Z,974.18
2018-06-09T08:21:05.973Z,974.20
2018-06-09T08:22:10.898Z,974.08
2018-06-09T08:23:06.188Z,974.14
2018-06-09T08:24:05.278Z,974.20
2018-06-09T08:25:05.278Z,974.20
2018-06-09T08:26:05.216Z,974.05
2018-06-09T08:27:05.464Z,974.28
2018-06-09T08:28:05.055Z,974.16
2018-06-09T08:29:05.356Z,974.16
2018-06-09T08:30:05.808Z,974.28
2018-06-09T08:31:05.426Z,974.19
2018-06-09T08:32:05.407Z,974.18
2018-06-09T08:33:05.803Z,974.24
2018-06-09T08:34:05.875Z,974.23
2018-06-09T08:35:05.583Z,974.26
2018-06-09T08:36:05.818Z,974.29
2018-06-09T08:37:05.781Z,974.22
2018-06-09T08:38:05.021Z,974.19
2018-06-09T08:39:05.798Z,974.13
2018-06-09T08:40:05.331Z,974.19
2018-06-09T08:41:05.601Z,974.31
2018-06-09T08:42:06.488Z,974.19
2018-06-09T08:43:05.549Z,974.19
2018-06-09T08:44:05.602Z,974.22
2018-06-09T08:45:05.803Z,974.13
2018-06-09T08:46:05.938Z,974.10
2018-06-09T08:47:06.072Z,974.16
2018-06-09T08:48:05.811Z,974.08
2018-06-09T08:49:05.956Z,974.05
2018-06-09T08:50:05.563Z,974.13
2018-06-09T08:51:10.786Z,974.07
2018-06-09T08:52:10.630Z,974.19
2018-06-09T08:53:05.629Z,974.07
2018-06-09T08:54:05.019Z,974.10
2018-06-09T08:55:04.993Z,973.95
2018-06-09T08:56:05.843Z,974.10
2018-06-09T08:57:05.576Z,974.13
2018-06-09T08:58:05.147Z,974.10
2018-06-09T08:59:06.372Z,974.21
2018-06-09T09:00:05.411Z,974.06
2018-06-09T09:01:05.047Z,974.06
2018-06-09T09:02:06.353Z,974.09
2018-06-09T09:03:07.154Z,974.03
2018-06-09T09:04:05.167Z,974.03
2018-06-09T09:05:05.977Z,974.06
2018-06-09T09:06:06.105Z,974.02
2018-06-09T09:07:06.230Z,973.99
2018-06-09T09:08:05.552Z,973.87
2018-06-09T09:09:05.683Z,973.96
2018-06-09T09:10:05.672Z,973.99
2018-06-09T09:11:05.225Z,973.93
2018-06-09T09:12:05.655Z,973.93
2018-06-09T09:13:05.800Z,973.96
2018-06-09T09:14:05.829Z,973.93
2018-06-09T09:15:05.209Z,973.87
2018-06-09T09:16:05.757Z,973.99
2018-06-09T09:17:05.684Z,973.96
2018-06-09T09:18:05.242Z,973.93
2018-06-09T09:19:05.371Z,973.87
2018-06-09T09:20:05.553Z,973.88
2018-06-09T09:21:05.380Z,973.91
2018-06-09T09:22:05.444Z,973.91
2018-06-09T09:23:05.635Z,973.79
2018-06-09T09:24:05.841Z,973.82
2018-06-09T09:25:05.270Z,973.88
2018-06-09T09:26:05.337Z,973.76
2018-06-09T09:27:05.046Z,973.82
2018-06-09T09:28:05.594Z,973.88
2018-06-09T09:29:05.294Z,973.91
2018-06-09T09:30:05.465Z,973.79
2018-06-09T09:31:05.615Z,973.82
2018-06-09T09:32:05.696Z,973.76
2018-06-09T09:33:05.725Z,973.90
2018-06-09T09:34:05.278Z,973.82
2018-06-09T09:35:05.388Z,973.76
2018-06-09T09:36:05.313Z,973.73
2018-06-09T09:37:06.464Z,973.67
2018-06-09T09:38:05.121Z,973.70
2018-06-09T09:39:05.346Z,973.85
2018-06-09T09:40:05.756Z,973.64
2018-06-09T09:41:05.722Z,973.76
2018-06-09T09:42:05.808Z,973.67
2018-06-09T09:43:05.033Z,973.76
2018-06-09T09:44:05.280Z,973.64
2018-06-09T09:45:05.978Z,973.55
2018-06-09T09:46:10.005Z,973.61
2018-06-09T09:47:05.940Z,973.53
2018-06-09T09:48:06.592Z,973.64
2018-06-09T09:49:05.767Z,973.58
2018-06-09T09:50:05.318Z,973.67
2018-06-09T09:51:05.215Z,973.55
2018-06-09T09:52:05.943Z,973.64
2018-06-09T09:53:05.883Z,973.61
2018-06-09T09:54:05.018Z,973.61
2018-06-09T09:55:05.090Z,973.58
2018-06-09T09:56:05.223Z,973.64
2018-06-09T09:57:05.330Z,973.64
2018-06-09T09:58:05.562Z,973.59
2018-06-09T09:59:04.989Z,973.68
2018-06-09T10:00:05.502Z,973.74
2018-06-09T10:01:05.487Z,973.77
2018-06-09T10:02:05.653Z,973.80
2018-06-09T10:03:05.897Z,973.77
2018-06-09T10:04:06.223Z,973.74
2018-06-09T10:05:05.717Z,973.74
2018-06-09T10:06:05.317Z,973.77
2018-06-09T10:07:05.285Z,973.68
2018-06-09T10:08:05.547Z,973.68
2018-06-09T10:09:05.745Z,973.59
2018-06-09T10:10:05.698Z,973.56
2018-06-09T10:11:05.537Z,973.65
2018-06-09T10:12:05.261Z,973.59
2018-06-09T10:13:05.250Z,973.77
2018-06-09T10:14:05.505Z,973.68
2018-06-09T10:15:05.579Z,973.65
2018-06-09T10:16:05.615Z,973.65
2018-06-09T10:17:05.590Z,973.71
2018-06-09T10:18:05.294Z,973.63
2018-06-09T10:19:05.867Z,973.72
2018-06-09T10:20:06.004Z,973.74
2018-06-09T10:21:05.717Z,973.83
2018-06-09T10:22:05.562Z,973.60
2018-06-09T10:23:05.463Z,973.66
2018-06-09T10:24:05.834Z,973.84
2018-06-09T10:25:05.706Z,973.61
2018-06-09T10:26:05.474Z,973.55
2018-06-09T10:27:04.948Z,973.64
2018-06-09T10:28:05.598Z,973.74
2018-06-09T10:29:05.077Z,973.62
2018-06-09T10:30:05.816Z,973.65
2018-06-09T10:31:05.893Z,973.52
2018-06-09T10:32:05.564Z,973.57
2018-06-09T10:33:05.127Z,973.74
2018-06-09T10:34:05.749Z,973.65
2018-06-09T10:35:05.548Z,973.68
2018-06-09T10:36:05.653Z,973.65
2018-06-09T10:37:05.145Z,973.65
2018-06-09T10:38:05.347Z,973.59
2018-06-09T10:39:04.950Z,973.61
2018-06-09T10:40:06.016Z,973.50
2018-06-09T10:41:05.992Z,973.50
2018-06-09T10:42:05.583Z,973.50
2018-06-09T10:43:05.379Z,973.47
2018-06-09T10:44:05.104Z,973.50
2018-06-09T10:45:05.269Z,973.55
2018-06-09T10:46:05.899Z,973.44
2018-06-09T10:47:05.305Z,973.53
2018-06-09T10:48:05.413Z,973.55
2018-06-09T10:49:05.442Z,973.44
2018-06-09T10:50:06.058Z,973.49
2018-06-09T10:51:05.675Z,973.44
2018-06-09T10:52:06.413Z,973.47
2018-06-09T10:53:05.807Z,973.41
2018-06-09T10:54:05.826Z,973.49
2018-06-09T10:55:05.752Z,973.38
2018-06-09T10:56:05.600Z,973.46
2018-06-09T10:57:05.516Z,973.31
2018-06-09T10:58:04.990Z,973.37
2018-06-09T10:59:05.015Z,973.43
2018-06-09T11:00:05.292Z,973.34
2018-06-09T11:01:05.328Z,973.37
2018-06-09T11:02:05.250Z,973.37
2018-06-09T11:03:05.993Z,973.49
2018-06-09T11:04:05.554Z,973.44
2018-06-09T11:05:05.748Z,973.23
2018-06-09T11:06:05.391Z,973.44
2018-06-09T11:07:06.033Z,973.35
2018-06-09T11:08:05.232Z,973.53
2018-06-09T11:09:05.980Z,973.38
2018-06-09T11:10:06.382Z,973.32
2018-06-09T11:11:05.736Z,973.35
2018-06-09T11:12:05.536Z,973.32
2018-06-09T11:13:05.871Z,973.23
2018-06-09T11:14:05.569Z,973.20
2018-06-09T11:15:05.522Z,973.32
2018-06-09T11:16:06.188Z,973.37
2018-06-09T11:17:05.925Z,973.34
2018-06-09T11:18:06.321Z,973.46
2018-06-09T11:19:06.230Z,973.31
2018-06-09T11:20:05.779Z,973.37
2018-06-09T11:21:05.543Z,973.31
2018-06-09T11:22:05.430Z,973.28
2018-06-09T11:23:10.529Z,973.34
2018-06-09T11:24:05.814Z,973.37
2018-06-09T11:25:05.878Z,973.40
2018-06-09T11:26:05.546Z,973.40
2018-06-09T11:27:05.530Z,973.48
2018-06-09T11:28:05.712Z,973.45
2018-06-09T11:29:05.757Z,973.42
2018-06-09T11:30:05.524Z,973.40
2018-06-09T11:31:05.248Z,973.37
2018-06-09T11:32:05.612Z,973.49
2018-06-09T11:33:05.618Z,973.40
2018-06-09T11:34:05.953Z,973.38
2018-06-09T11:35:05.465Z,973.44
2018-06-09T11:36:05.230Z,973.35
2018-06-09T11:37:06.434Z,973.38
2018-06-09T11:38:05.420Z,973.36
2018-06-09T11:39:05.463Z,973.45
2018-06-09T11:40:05.520Z,973.33
2018-06-09T11:41:05.336Z,973.54
2018-06-09T11:42:05.038Z,973.42
2018-06-09T11:43:05.819Z,973.21
2018-06-09T11:44:05.261Z,973.39
2018-06-09T11:45:05.091Z,973.24
2018-06-09T11:46:05.357Z,973.21
2018-06-09T11:47:05.584Z,973.21
2018-06-09T11:48:05.360Z,973.03
2018-06-09T11:49:05.329Z,973.14
2018-06-09T11:50:05.067Z,973.11
2018-06-09T11:51:05.801Z,973.14
2018-06-09T11:52:05.779Z,973.05
2018-06-09T11:53:05.756Z,973.04
2018-06-09T11:54:05.563Z,972.95
2018-06-09T11:55:05.159Z,972.98
2018-06-09T11:56:05.104Z,973.03
2018-06-09T11:57:05.363Z,973.12
2018-06-09T11:58:05.453Z,972.94
2018-06-09T11:59:05.037Z,973.03
2018-06-09T12:00:05.515Z,972.88
2018-06-09T12:01:06.425Z,973.18
2018-06-09T12:02:05.021Z,973.30
2018-06-09T12:03:05.999Z,973.18
2018-06-09T12:04:06.284Z,973.27
2018-06-09T12:05:05.781Z,973.27
2018-06-09T12:06:05.343Z,973.25
2018-06-09T12:07:05.593Z,973.37
2018-06-09T12:08:05.080Z,973.37
2018-06-09T12:09:05.060Z,973.31
2018-06-09T12:10:05.167Z,973.34
2018-06-09T12:11:05.278Z,973.48
2018-06-09T12:12:05.078Z,973.31
2018-06-09T12:13:05.289Z,973.25
2018-06-09T12:14:05.857Z,973.28
2018-06-09T12:15:06.242Z,973.29
2018-06-09T12:16:05.877Z,973.20
2018-06-09T12:17:06.846Z,973.29
2018-06-09T12:18:05.930Z,973.35
2018-06-09T12:19:05.559Z,973.26
2018-06-09T12:20:05.307Z,973.23
2018-06-09T12:21:05.373Z,973.27
2018-06-09T12:22:06.347Z,973.30
2018-06-09T12:23:05.684Z,973.12
2018-06-09T12:24:05.817Z,973.12
2018-06-09T12:25:06.103Z,973.24
2018-06-09T12:26:05.314Z,973.30
2018-06-09T12:27:05.449Z,973.33
2018-06-09T12:28:05.776Z,973.24